• Join FlightAware (Why Join?)
  • Login
  • US Flag 
03:26AM EDT


 

Airport Tracker/Info


-or-


 

Live Flight TrackerFlight Track Log ✈ CJT574 ✈ 09-Jul-2013 ✈ CYEG - CYWG

Flight Track Log - Related Links

Times and Time Zones

All times are in EDT time to prevent confusion due to time zone crossing. See the CJT574 flight status page for this flight to view local times or setup timezone preferences in your user account.

Time Position Orientation Groundspeed Altitude Reporting Facility
EDT Latitude Longitude Course Direction KTS MPH feet Rate Location/Type
11:46PM 53.2333 -113.5333 102° East 150 173 3,800  Level Edmonton Center
11:47PM 53.2333 -113.4500 90° East 160 184 5,200 1,080 Climbing Edmonton Center
11:48PM 53.2333 -113.3667 90° East 210 242 6,000 1,200 Climbing Edmonton Center
11:49PM 53.2500 -113.2833 71° East 250 288 7,600 1,560 Climbing Edmonton Center
11:50PM 53.2833 -113.1500 67° East 290 334 9,200 1,560 Climbing Edmonton Center
11:51PM 53.1274 -112.2088 102° East  Level Estimated
11:51PM 53.2833 -113.0167 90° East 320 368 10,800  Level Edmonton Center
11:52PM 53.2667 -112.8333 99° East 390 449 11,700 1,620 Climbing Edmonton Center
11:53PM 53.2500 -112.6667 99° East 400 460 14,100 2,100 Climbing Edmonton Center
11:54PM 53.2000 -112.4500 111° Southeast 410 472 15,900 1,800 Climbing Edmonton Center
11:55PM 53.1833 -112.2833 99° East 410 472 17,700 1,620 Climbing Edmonton Center
11:57PM 53.1000 -111.8667 108° East 440 506 20,900 1,380 Climbing Edmonton Center
11:59PM 53.0500 -111.4667 102° East 470 541 23,700 1,260 Climbing Winnipeg Center
12:00AM 53.0000 -111.2667 112° Southeast 470 541 24,800 1,380 Climbing Edmonton Center
12:01AM 52.9667 -111.0333 103° East 470 541 26,100 1,260 Climbing Edmonton Center
12:03AM 52.9000 -110.6000 104° East 480 552 28,600 1,260 Climbing Edmonton Center
12:04AM 52.8667 -110.4000 105° East 480 552 29,900 1,080 Climbing Edmonton Center
12:05AM 52.8167 -110.2000 112° Southeast 490 564 30,800 1,080 Climbing Edmonton Center
12:06AM 52.7833 -109.9500 102° East 490 564 32,400 900 Climbing Winnipeg Center
12:07AM 52.7500 -109.7333 104° East 490 564 32,700 300 Climbing Edmonton Center
12:08AM 52.7000 -109.5167 111° Southeast 500 575 33,000 120 Climbing Edmonton Center
12:09AM 52.6667 -109.3000 104° East 510 587 33,000  Level Winnipeg Center
12:10AM 52.6333 -109.0500 102° East 500 575 33,000  Level Winnipeg Center
12:11AM 52.5833 -108.8667 114° Southeast 500 575 33,000  Level Edmonton Center
12:12AM 52.5500 -108.6667 105° East 500 575 33,000  Level Edmonton Center
12:13AM 52.5000 -108.4000 107° East 500 575 33,000  Level Edmonton Center
12:14AM 52.4667 -108.1833 104° East 510 587 33,000  Level Winnipeg Center
12:15AM 52.4167 -107.9500 109° East 510 587 33,000  Level Winnipeg Center
12:16AM 52.3667 -107.7333 111° Southeast 510 587 33,000  Level Winnipeg Center
12:17AM 52.3167 -107.5167 111° Southeast 520 598 33,000  Level Winnipeg Center
12:19AM 52.2333 -107.0833 107° East 510 587 33,000  Level Edmonton Center
12:20AM 52.1833 -106.8667 111° Southeast 510 587 33,000  Level Edmonton Center
12:21AM 52.1333 -106.6500 111° Southeast 520 598 33,000  Level Edmonton Center
12:22AM 52.0833 -106.4167 109° East 510 587 33,000  Level Edmonton Center
12:23AM 52.0333 -106.2000 110° East 510 587 33,000  Level Edmonton Center
12:24AM 52.0167 -105.9833 97° East 510 587 33,000  Level Edmonton Center
12:25AM 51.9667 -105.7333 108° East 520 598 33,000  Level Winnipeg Center
12:26AM 51.9167 -105.5000 109° East 520 598 33,000  Level Winnipeg Center
12:28AM 51.8333 -105.0500 107° East 520 598 33,000  Level Winnipeg Center
12:29AM 51.7667 -104.8500 118° Southeast 520 598 33,000  Level Winnipeg Center
12:30AM 51.7167 -104.6000 108° East 520 598 33,000  Level Winnipeg Center
12:31AM 51.6833 -104.4000 105° East 530 610 33,000  Level Winnipeg Center
12:32AM 51.6333 -104.1667 109° East 520 598 33,000  Level Winnipeg Center
12:33AM 51.5833 -103.9500 110° East 520 598 33,000  Level Winnipeg Center
12:34AM 51.5500 -103.7333 104° East 520 598 33,000  Level Winnipeg Center
12:35AM 51.4833 -103.5000 115° Southeast 520 598 33,000  Level Winnipeg Center
12:37AM 51.3833 -103.0500 109° East 530 610 33,000  Level Winnipeg Center
12:38AM 51.3333 -102.8333 110° East 530 610 33,000  Level Winnipeg Center
12:39AM 51.2833 -102.6167 110° East 520 598 33,000  Level Winnipeg Center
12:40AM 51.2500 -102.4000 104° East 530 610 33,000  Level Winnipeg Center
12:41AM 51.1833 -102.1833 116° Southeast 530 610 33,000  Level Winnipeg Center
12:42AM 51.1333 -101.9500 109° East 530 610 33,000  Level Winnipeg Center
12:43AM 51.0833 -101.7333 110° East 530 610 33,000  Level Winnipeg Center
12:44AM 51.0333 -101.5167 110° East 530 610 33,000  Level Winnipeg Center
12:45AM 50.9667 -101.3000 116° Southeast 530 610 33,000  Level Winnipeg Center
12:46AM 50.9333 -101.0833 104° East 530 610 33,000  Level Winnipeg Center
12:47AM 50.8667 -100.8667 116° Southeast 530 610 33,000  Level Winnipeg Center
12:48AM 50.8167 -100.6167 107° East 530 610 33,000  Level Winnipeg Center
12:49AM 50.7667 -100.4333 113° Southeast 530 610 33,000  Level Winnipeg Center
12:50AM 50.7000 -100.1833 113° Southeast 530 610 33,000  Level Winnipeg Center
12:51AM 50.6667 -99.9833 105° East 530 610 33,000  Level Winnipeg Center
12:52AM 50.6167 -99.7833 111° Southeast 520 598 33,000 -1,080 Level Winnipeg Center
12:53AM 50.5500 -99.5500 114° Southeast 520 598 30,900 -2,520 Descending Winnipeg Center
12:54AM 50.5000 -99.3667 113° Southeast 500 575 28,000 -2,880 Descending Winnipeg Center
12:55AM 50.4667 -99.1500 104° East 490 564 25,200 -2,940 Descending Winnipeg Center
12:56AM 50.4167 -98.9667 113° Southeast 470 541 22,200 -3,120 Descending Winnipeg Center
12:57AM 50.3667 -98.7833 113° Southeast 450 518 19,000 -3,000 Descending Winnipeg Center
12:58AM 50.3167 -98.5833 111° Southeast 440 506 16,200 -2,820 Descending Winnipeg Center
12:59AM 50.2667 -98.4333 117° Southeast 410 472 13,400 -2,700 Descending Winnipeg Center
01:00AM 50.2333 -98.2667 107° East 400 460 10,800 -1,620 Descending Winnipeg Center
01:01AM 50.2000 -98.1500 114° Southeast 350 403 10,200 -1,080 Descending Winnipeg Center
01:02AM 50.1833 -98.0167 101° East 300 345 8,700 -1,620 Descending Winnipeg Center
01:03AM 50.1500 -97.9000 114° Southeast 300 345 7,000 -1,680 Descending Winnipeg Center
01:04AM 50.1167 -97.8000 117° Southeast 290 334 5,400 -1,500 Descending Winnipeg Center
01:05AM 50.0833 -97.6667 111° Southeast 280 322 4,100 -1,020 Descending Winnipeg Center
01:06AM 50.0500 -97.5667 117° Southeast 250 288 3,400 -600 Descending Winnipeg Center
01:07AM 50.0333 -97.4833 107° East 240 276 3,000 -180 Descending Winnipeg Center
01:08AM 50.0000 -97.3833 117° Southeast 240 276 3,100 -420 Climbing Winnipeg Center
01:09AM 49.9500 -97.3333 147° Southeast 220 253 2,200 -960 Descending Winnipeg Center
01:10AM 49.9167 -97.2833 136° Southeast 150 173 1,200 -780 Descending Winnipeg Center
01:11AM 49.8833 -97.2333 136° Southeast 140 161 700 -540 Descending Winnipeg Center